EmailTwitter


Observations de surface / Québec / CYMX

Régions: Québec | Canada | États-Unis | Europe | France | UK | Elsewhere
Station
Affichage
Infos & localisation pour CYMX | Aide pour décoder les METARs

Observations prises le 2017-06-29 à 05H00 UTC à MONTREAL MIRABEL, QB (CYMX)

Etat du ciel: partiellement nuageux.

Température: 13.0 Celsius

Point de rosée: 12.0 Celsius

Humidité relative: 94%

Vents: Calme à 0 km/h ou 0 noeuds.

Pression au niveau moyen de la mer: 101.59 kilopascals.

Calage altimétrique: 101.56 kilopascals ou 29.99 pouces de mercure.

Visibilité horizontale: 25.00 milles terrestres ou 40.00 kilomètres.

Hauteur du plafond: 5182 mètres ( 17000 pieds ).

Observation METAR:

CYMX 290500Z 00000KT 25SM FEW080 BKN170 13/12 A2999 RMK AC1AC6 SLP159=